createdAt,value
2018-06-17T00:01:28.848Z,14.80
2018-06-17T00:03:59.234Z,14.90
2018-06-17T00:06:29.847Z,14.90
2018-06-17T00:08:59.748Z,14.90
2018-06-17T00:11:30.037Z,14.90
2018-06-17T00:14:00.143Z,14.90
2018-06-17T00:16:30.258Z,14.90
2018-06-17T00:19:00.367Z,14.80
2018-06-17T00:21:30.351Z,14.80
2018-06-17T00:24:00.350Z,14.80
2018-06-17T00:26:30.452Z,14.70
2018-06-17T00:29:00.483Z,14.70
2018-06-17T00:31:30.845Z,14.70
2018-06-17T00:34:01.055Z,14.70
2018-06-17T00:36:31.522Z,14.70
2018-06-17T00:39:01.744Z,14.70
2018-06-17T00:41:31.705Z,14.70
2018-06-17T00:44:01.742Z,14.70
2018-06-17T00:46:31.896Z,14.70
2018-06-17T00:49:02.048Z,14.70
2018-06-17T00:51:32.023Z,14.70
2018-06-17T00:54:02.187Z,14.70
2018-06-17T00:56:33.701Z,14.70
2018-06-17T00:59:03.850Z,14.70
2018-06-17T01:01:33.850Z,14.80
2018-06-17T01:04:04.566Z,14.80
2018-06-17T01:06:34.540Z,14.80
2018-06-17T01:09:05.659Z,14.80
2018-06-17T01:11:35.756Z,14.80
2018-06-17T01:14:05.778Z,14.80
2018-06-17T01:16:35.987Z,14.80
2018-06-17T01:19:06.052Z,14.80
2018-06-17T01:21:36.617Z,14.80
2018-06-17T01:24:07.067Z,14.80
2018-06-17T01:26:36.970Z,14.80
2018-06-17T01:29:07.073Z,14.80
2018-06-17T01:31:36.996Z,14.70
2018-06-17T01:34:07.210Z,14.70
2018-06-17T01:36:37.290Z,14.70
2018-06-17T01:39:08.930Z,14.70
2018-06-17T01:41:38.979Z,14.70
2018-06-17T01:44:09.358Z,14.70
2018-06-17T01:46:39.362Z,14.70
2018-06-17T01:49:09.295Z,14.80
2018-06-17T01:51:39.591Z,14.80
2018-06-17T01:54:09.861Z,14.80
2018-06-17T01:56:39.822Z,14.80
2018-06-17T01:59:09.741Z,14.80
2018-06-17T02:01:39.667Z,14.80
2018-06-17T02:04:14.665Z,14.70
2018-06-17T02:08:51.968Z,14.70
2018-06-17T02:11:27.379Z,14.60
2018-06-17T02:14:01.744Z,14.50
2018-06-17T02:16:31.912Z,14.50
2018-06-17T02:19:02.163Z,14.50
2018-06-17T02:21:32.158Z,14.40
2018-06-17T02:24:02.130Z,14.40
2018-06-17T02:26:32.360Z,14.40
2018-06-17T02:29:02.372Z,14.40
2018-06-17T02:31:32.612Z,14.40
2018-06-17T02:34:02.544Z,14.50
2018-06-17T02:36:33.438Z,14.50
2018-06-17T02:39:04.624Z,14.50
2018-06-17T02:41:34.815Z,14.50
2018-06-17T02:44:05.157Z,14.60
2018-06-17T02:46:40.408Z,14.70
2018-06-17T02:49:16.539Z,14.70
2018-06-17T02:51:51.795Z,14.70
2018-06-17T02:54:39.502Z,14.70
2018-06-17T02:57:11.050Z,14.70
2018-06-17T02:59:42.352Z,14.60
2018-06-17T03:02:13.178Z,14.70
2018-06-17T03:04:43.273Z,14.70
2018-06-17T03:07:13.743Z,14.60
2018-06-17T03:09:43.671Z,14.60
2018-06-17T03:12:14.597Z,14.60
2018-06-17T03:14:44.817Z,14.60
2018-06-17T03:17:15.299Z,14.60
2018-06-17T03:19:46.555Z,14.50
2018-06-17T03:22:16.593Z,14.60
2018-06-17T03:24:52.062Z,14.60
2018-06-17T03:27:27.373Z,14.60
2018-06-17T03:30:02.863Z,14.60
2018-06-17T03:32:37.990Z,14.60
2018-06-17T03:35:14.412Z,14.50
2018-06-17T03:37:44.811Z,14.40
2018-06-17T03:40:14.891Z,14.30
2018-06-17T03:42:45.108Z,14.10
2018-06-17T03:45:15.417Z,13.90
2018-06-17T03:47:45.702Z,13.70
2018-06-17T03:50:15.786Z,13.60
2018-06-17T03:52:45.994Z,13.50
2018-06-17T03:55:17.157Z,13.30
2018-06-17T03:57:47.201Z,13.20
2018-06-17T04:00:19.596Z,13.20
2018-06-17T04:02:49.655Z,13.20
2018-06-17T04:05:25.072Z,13.20
2018-06-17T04:07:55.479Z,13.20
2018-06-17T04:10:26.084Z,13.20
2018-06-17T04:12:56.190Z,13.20
2018-06-17T04:15:26.396Z,13.30
2018-06-17T04:17:56.442Z,13.30
2018-06-17T04:20:26.596Z,13.30
2018-06-17T04:22:56.573Z,13.30
2018-06-17T04:25:26.715Z,13.30
2018-06-17T04:27:57.360Z,13.30
2018-06-17T04:30:27.430Z,13.30
2018-06-17T04:32:57.595Z,13.20
2018-06-17T04:35:27.663Z,13.20
2018-06-17T04:37:57.632Z,13.20
2018-06-17T04:40:27.957Z,13.20
2018-06-17T04:42:58.268Z,13.30
2018-06-17T04:45:29.631Z,13.30
2018-06-17T04:47:59.974Z,13.30
2018-06-17T04:50:30.013Z,13.30
2018-06-17T04:53:00.756Z,13.30
2018-06-17T04:55:30.739Z,13.30
2018-06-17T04:58:00.744Z,13.30
2018-06-17T05:00:30.847Z,13.40
2018-06-17T05:03:03.364Z,13.30
2018-06-17T05:05:34.062Z,13.30
2018-06-17T05:08:04.650Z,13.40
2018-06-17T05:10:34.601Z,13.40
2018-06-17T05:13:05.141Z,13.40
2018-06-17T05:15:35.894Z,13.40
2018-06-17T05:18:05.898Z,13.40
2018-06-17T05:20:35.927Z,13.40
2018-06-17T05:23:06.209Z,13.50
2018-06-17T05:25:36.617Z,13.50
2018-06-17T05:28:07.807Z,13.60
2018-06-17T05:30:38.387Z,13.60
2018-06-17T05:33:08.930Z,13.60
2018-06-17T05:35:39.310Z,13.70
2018-06-17T05:38:09.251Z,13.70
2018-06-17T05:40:39.746Z,13.80
2018-06-17T05:43:10.135Z,13.90
2018-06-17T05:45:40.120Z,13.90
2018-06-17T05:48:10.446Z,13.90
2018-06-17T05:50:40.704Z,14.10
2018-06-17T05:53:11.110Z,14.60
2018-06-17T05:55:41.131Z,15.30
2018-06-17T05:58:11.802Z,16.10
2018-06-17T06:00:42.583Z,17.00
2018-06-17T06:03:13.136Z,17.30
2018-06-17T06:05:44.467Z,17.70
2018-06-17T06:08:15.092Z,17.90
2018-06-17T06:10:45.807Z,17.80
2018-06-17T06:13:16.605Z,17.60
2018-06-17T06:15:47.561Z,17.40
2018-06-17T06:18:18.939Z,17.10
2018-06-17T06:20:49.762Z,17.10
2018-06-17T06:23:20.274Z,17.20
2018-06-17T06:25:51.032Z,17.00
2018-06-17T06:28:22.317Z,17.00
2018-06-17T06:30:53.417Z,17.10
2018-06-17T06:33:24.454Z,17.10
2018-06-17T06:35:55.001Z,16.90
2018-06-17T06:38:25.554Z,16.90
2018-06-17T06:40:56.175Z,17.00
2018-06-17T06:43:26.713Z,16.80
2018-06-17T06:45:57.697Z,16.40
2018-06-17T06:48:28.208Z,16.40
2018-06-17T06:50:59.124Z,16.30
2018-06-17T06:53:29.251Z,16.10
2018-06-17T06:55:59.438Z,16.00
2018-06-17T06:58:30.167Z,16.10
2018-06-17T07:01:00.920Z,16.60
2018-06-17T07:03:49.348Z,17.10
2018-06-17T07:06:36.697Z,17.40
2018-06-17T07:09:33.009Z,17.90
2018-06-17T07:12:03.575Z,18.00
2018-06-17T07:14:34.023Z,18.00
2018-06-17T07:17:21.250Z,18.10
2018-06-17T07:19:51.968Z,18.00
2018-06-17T07:22:22.549Z,17.90
2018-06-17T07:24:53.035Z,17.90
2018-06-17T07:27:40.214Z,18.00
2018-06-17T07:30:10.757Z,18.10
2018-06-17T07:32:41.205Z,17.90
2018-06-17T07:35:12.280Z,18.20
2018-06-17T07:37:43.005Z,18.50
2018-06-17T07:40:49.651Z,18.80
2018-06-17T07:43:20.850Z,18.70
2018-06-17T07:45:52.283Z,19.00
2018-06-17T07:50:46.613Z,19.00
2018-06-17T07:53:20.855Z,19.40
2018-06-17T07:55:51.721Z,18.90
2018-06-17T07:58:22.443Z,18.50
2018-06-17T08:00:53.732Z,18.40
2018-06-17T08:03:24.477Z,18.30
2018-06-17T08:05:55.565Z,18.60
2018-06-17T08:08:26.095Z,18.80
2018-06-17T08:10:56.693Z,19.20
2018-06-17T08:13:27.595Z,19.40
2018-06-17T08:15:58.412Z,19.40
2018-06-17T08:18:28.965Z,19.30
2018-06-17T08:21:00.205Z,18.90
2018-06-17T08:23:30.836Z,18.70
2018-06-17T08:26:01.694Z,18.60
2018-06-17T08:28:32.273Z,18.50
2018-06-17T08:31:03.247Z,18.20
2018-06-17T08:33:33.843Z,18.20
2018-06-17T08:36:04.931Z,18.10
2018-06-17T08:38:35.715Z,18.30
2018-06-17T08:41:06.707Z,18.30
2018-06-17T08:43:37.923Z,19.00
2018-06-17T08:46:08.991Z,19.20
2018-06-17T08:48:39.611Z,19.20
2018-06-17T08:51:10.269Z,19.10
2018-06-17T08:53:40.884Z,19.20
2018-06-17T08:56:11.645Z,19.20
2018-06-17T08:58:43.041Z,19.20
2018-06-17T09:01:13.703Z,19.20
2018-06-17T09:03:44.249Z,19.60
2018-06-17T09:06:14.867Z,20.00
2018-06-17T09:08:45.504Z,20.20
2018-06-17T09:11:16.076Z,20.50
2018-06-17T09:13:46.815Z,20.10
2018-06-17T09:16:17.367Z,20.50
2018-06-17T09:18:48.110Z,20.60
2018-06-17T09:21:19.464Z,20.90
2018-06-17T09:23:50.806Z,21.00
2018-06-17T09:26:21.535Z,21.00
2018-06-17T09:28:53.736Z,21.10
2018-06-17T09:31:24.727Z,21.00
2018-06-17T09:33:55.750Z,20.60
2018-06-17T09:36:26.447Z,20.40
2018-06-17T09:38:56.996Z,20.50
2018-06-17T09:41:27.495Z,20.50
2018-06-17T09:43:58.056Z,20.80
2018-06-17T09:46:28.848Z,20.80
2018-06-17T09:48:59.569Z,20.70
2018-06-17T09:51:30.121Z,20.90
2018-06-17T09:54:00.803Z,20.90
2018-06-17T09:56:31.414Z,21.00
2018-06-17T09:59:02.001Z,20.90
2018-06-17T10:01:32.827Z,20.80
2018-06-17T10:04:04.271Z,20.50
2018-06-17T10:06:34.974Z,20.40
2018-06-17T10:09:09.261Z,20.50
2018-06-17T10:11:39.945Z,20.30
2018-06-17T10:14:10.716Z,20.10
2018-06-17T10:16:41.427Z,20.20
2018-06-17T10:19:12.283Z,20.60
2018-06-17T10:21:43.194Z,20.70
2018-06-17T10:24:13.879Z,20.80
2018-06-17T10:26:44.506Z,20.80
2018-06-17T10:29:15.209Z,20.60
2018-06-17T10:31:45.985Z,20.90
2018-06-17T10:34:16.876Z,21.10
2018-06-17T10:36:47.621Z,21.10
2018-06-17T10:39:18.533Z,21.30
2018-06-17T10:41:49.130Z,21.30
2018-06-17T10:44:19.960Z,21.30
2018-06-17T10:46:51.410Z,22.30
2018-06-17T10:49:23.109Z,23.10
2018-06-17T10:51:53.874Z,23.00
2018-06-17T10:54:24.482Z,23.00
2018-06-17T10:56:55.479Z,22.30
2018-06-17T10:59:26.205Z,21.90
2018-06-17T11:01:57.046Z,21.50
2018-06-17T11:04:27.704Z,21.60
2018-06-17T11:06:58.306Z,21.40
2018-06-17T11:09:29.183Z,21.20
2018-06-17T11:12:00.057Z,21.00
2018-06-17T11:14:30.911Z,20.90
2018-06-17T11:17:01.955Z,21.00
2018-06-17T11:19:33.067Z,20.80
2018-06-17T11:22:04.367Z,20.60
2018-06-17T11:24:35.428Z,20.30
2018-06-17T11:27:06.094Z,20.00
2018-06-17T11:29:36.957Z,19.70
2018-06-17T11:32:07.518Z,19.30
2018-06-17T11:34:38.172Z,19.10
2018-06-17T11:37:08.947Z,18.90
2018-06-17T11:39:39.524Z,18.60
2018-06-17T11:42:10.356Z,18.50
2018-06-17T11:44:41.077Z,18.70
2018-06-17T11:47:11.864Z,18.90
2018-06-17T11:49:42.459Z,18.90
2018-06-17T11:52:13.469Z,18.90
2018-06-17T11:54:44.041Z,19.10
2018-06-17T11:57:15.166Z,19.20
2018-06-17T11:59:45.759Z,19.40
2018-06-17T12:02:16.652Z,19.90
2018-06-17T12:04:47.459Z,20.50
2018-06-17T12:07:18.301Z,21.00
2018-06-17T12:09:49.816Z,21.10
2018-06-17T12:12:21.080Z,21.30
2018-06-17T12:14:51.681Z,21.40
2018-06-17T12:17:22.739Z,21.70
2018-06-17T12:19:53.436Z,21.80
2018-06-17T12:22:24.636Z,21.70
2018-06-17T12:24:55.410Z,21.90
2018-06-17T12:27:26.213Z,21.80
2018-06-17T12:29:57.075Z,21.70
2018-06-17T12:32:28.001Z,21.70
2018-06-17T12:34:58.691Z,21.90
2018-06-17T12:37:29.340Z,21.60
2018-06-17T12:39:59.857Z,21.00
2018-06-17T12:42:30.530Z,20.80
2018-06-17T12:45:01.917Z,20.80
2018-06-17T12:47:32.722Z,20.90
2018-06-17T12:50:03.553Z,21.20
2018-06-17T12:52:34.967Z,21.40
2018-06-17T12:55:05.780Z,21.10
2018-06-17T12:57:36.905Z,21.10
2018-06-17T13:00:07.912Z,20.80
2018-06-17T13:02:39.198Z,20.90
2018-06-17T13:05:09.865Z,20.80
2018-06-17T13:07:41.037Z,20.50
2018-06-17T13:10:11.804Z,20.40
2018-06-17T13:12:42.451Z,20.20
2018-06-17T13:15:13.217Z,20.20
2018-06-17T13:17:43.897Z,20.10
2018-06-17T13:20:14.586Z,20.30
2018-06-17T13:22:46.523Z,20.30
2018-06-17T13:25:17.974Z,20.30
2018-06-17T13:27:48.993Z,20.40
2018-06-17T13:30:19.893Z,20.10
2018-06-17T13:32:50.963Z,19.80
2018-06-17T13:35:22.395Z,19.40
2018-06-17T13:37:53.896Z,19.30
2018-06-17T13:40:24.779Z,19.30
2018-06-17T13:42:55.353Z,19.20
2018-06-17T13:45:26.339Z,19.20
2018-06-17T13:47:57.361Z,19.20
2018-06-17T13:50:28.929Z,19.10
2018-06-17T13:52:59.952Z,19.10
2018-06-17T13:55:30.681Z,19.20
2018-06-17T13:58:01.299Z,19.30
2018-06-17T14:00:32.048Z,19.20
2018-06-17T14:03:02.651Z,19.00
2018-06-17T14:05:33.301Z,19.20
2018-06-17T14:08:03.946Z,19.30
2018-06-17T14:10:34.836Z,19.10
2018-06-17T14:13:05.659Z,19.20
2018-06-17T14:15:36.577Z,19.00
2018-06-17T14:18:07.848Z,19.00
2018-06-17T14:20:38.406Z,19.00
2018-06-17T14:23:08.958Z,19.00
2018-06-17T14:25:39.507Z,19.10
2018-06-17T14:28:10.585Z,19.30
2018-06-17T14:30:42.305Z,19.50
2018-06-17T14:33:12.991Z,19.70
2018-06-17T14:35:43.847Z,19.50
2018-06-17T14:38:14.678Z,19.70
2018-06-17T14:40:50.605Z,19.90
2018-06-17T14:43:26.368Z,19.90
2018-06-17T14:46:01.504Z,19.90
2018-06-17T14:48:37.591Z,20.20
2018-06-17T14:51:13.477Z,20.30
2018-06-17T14:53:43.932Z,20.30
2018-06-17T14:56:14.755Z,20.00
2018-06-17T14:58:45.431Z,19.60
2018-06-17T15:01:16.391Z,19.30
2018-06-17T15:03:47.302Z,19.30
2018-06-17T15:06:18.069Z,19.20
2018-06-17T15:08:48.720Z,18.90
2018-06-17T15:11:19.927Z,18.60
2018-06-17T15:13:50.815Z,18.50
2018-06-17T15:16:22.105Z,18.50
2018-06-17T15:18:53.253Z,18.40
2018-06-17T15:21:24.364Z,18.60
2018-06-17T15:23:55.143Z,18.60
2018-06-17T15:26:25.790Z,18.80
2018-06-17T15:28:56.560Z,18.90
2018-06-17T15:31:32.776Z,19.30
2018-06-17T15:34:08.771Z,19.40
2018-06-17T15:36:44.934Z,19.50
2018-06-17T15:39:20.785Z,19.70
2018-06-17T15:41:51.406Z,19.90
2018-06-17T15:44:22.704Z,19.40
2018-06-17T15:46:53.971Z,19.00
2018-06-17T15:49:24.906Z,18.80
2018-06-17T15:51:55.509Z,18.60
2018-06-17T15:54:26.264Z,18.60
2018-06-17T15:56:57.020Z,18.20
2018-06-17T15:59:27.878Z,18.30
2018-06-17T16:01:58.500Z,18.20
2018-06-17T16:04:29.340Z,18.10
2018-06-17T16:06:59.783Z,18.40
2018-06-17T16:09:30.875Z,18.40
2018-06-17T16:12:06.739Z,18.80
2018-06-17T16:14:42.677Z,19.10
2018-06-17T16:17:18.253Z,19.40
2018-06-17T16:19:54.267Z,19.30
2018-06-17T16:22:24.908Z,19.30
2018-06-17T16:24:55.539Z,19.10
2018-06-17T16:27:26.095Z,19.00
2018-06-17T16:29:56.702Z,18.90
2018-06-17T16:32:27.708Z,18.70
2018-06-17T16:34:58.869Z,18.70
2018-06-17T16:37:29.488Z,18.50
2018-06-17T16:40:00.277Z,18.40
2018-06-17T16:42:31.679Z,18.20
2018-06-17T16:45:02.601Z,18.10
2018-06-17T16:47:33.711Z,17.90
2018-06-17T16:50:04.595Z,17.90
2018-06-17T16:52:40.618Z,18.00
2018-06-17T16:57:17.533Z,17.90
2018-06-17T16:59:54.853Z,17.80
2018-06-17T17:02:25.870Z,17.80
2018-06-17T17:04:57.519Z,17.80
2018-06-17T17:07:29.735Z,17.70
2018-06-17T17:10:00.594Z,17.60
2018-06-17T17:12:31.324Z,17.50
2018-06-17T17:15:02.738Z,17.40
2018-06-17T17:17:34.040Z,17.40
2018-06-17T17:20:05.182Z,17.30
2018-06-17T17:22:36.103Z,17.30
2018-06-17T17:25:06.977Z,17.20
2018-06-17T17:27:37.647Z,17.20
2018-06-17T17:30:08.158Z,17.10
2018-06-17T17:32:43.919Z,17.10
2018-06-17T17:37:20.555Z,16.90
2018-06-17T17:39:55.842Z,16.80
2018-06-17T17:42:26.018Z,16.80
2018-06-17T17:45:01.333Z,16.70
2018-06-17T17:47:32.711Z,16.60
2018-06-17T17:50:03.613Z,16.60
2018-06-17T17:52:34.259Z,16.70
2018-06-17T17:55:05.259Z,16.70
2018-06-17T17:57:36.901Z,16.80
2018-06-17T18:00:07.941Z,16.80
2018-06-17T18:02:38.160Z,16.80
2018-06-17T18:05:08.742Z,16.70
2018-06-17T18:07:38.794Z,16.60
2018-06-17T18:10:09.756Z,16.60
2018-06-17T18:12:39.714Z,16.50
2018-06-17T18:15:10.324Z,16.40
2018-06-17T18:17:41.218Z,16.30
2018-06-17T18:20:12.594Z,16.30
2018-06-17T18:22:44.450Z,16.30
2018-06-17T18:25:20.807Z,16.20
2018-06-17T18:27:55.973Z,16.10
2018-06-17T18:30:32.458Z,16.00
2018-06-17T18:33:07.584Z,16.00
2018-06-17T18:35:42.969Z,15.90
2018-06-17T18:38:13.105Z,15.80
2018-06-17T18:40:45.443Z,15.70
2018-06-17T18:43:15.995Z,15.60
2018-06-17T18:45:46.387Z,15.50
2018-06-17T18:48:17.664Z,15.50
2018-06-17T18:50:47.754Z,15.40
2018-06-17T18:53:24.774Z,15.40
2018-06-17T18:55:55.465Z,15.40
2018-06-17T18:58:26.038Z,15.30
2018-06-17T19:00:56.280Z,15.30
2018-06-17T19:03:26.394Z,15.30
2018-06-17T19:05:56.685Z,15.20
2018-06-17T19:08:32.627Z,15.20
2018-06-17T19:11:07.996Z,15.30
2018-06-17T19:13:43.621Z,15.30
2018-06-17T19:16:19.609Z,15.20
2018-06-17T19:18:49.882Z,15.20
2018-06-17T19:21:20.668Z,15.10
2018-06-17T19:23:52.088Z,15.10
2018-06-17T19:26:23.566Z,15.10
2018-06-17T19:28:53.892Z,15.00
2018-06-17T19:31:24.432Z,15.00
2018-06-17T19:33:54.896Z,14.90
2018-06-17T19:36:26.451Z,14.90
2018-06-17T19:38:56.949Z,14.80
2018-06-17T19:41:27.428Z,14.80
2018-06-17T19:43:58.057Z,14.70
2018-06-17T19:46:28.255Z,14.70
2018-06-17T19:48:59.571Z,14.60
2018-06-17T19:51:34.948Z,14.50
2018-06-17T19:54:10.959Z,14.40
2018-06-17T19:56:46.204Z,14.40
2018-06-17T19:59:21.914Z,14.30
2018-06-17T20:01:52.270Z,14.20
2018-06-17T20:04:22.710Z,14.10
2018-06-17T20:06:52.963Z,14.00
2018-06-17T20:09:23.062Z,13.90
2018-06-17T20:11:53.445Z,13.80
2018-06-17T20:14:23.815Z,13.70
2018-06-17T20:16:54.259Z,13.60
2018-06-17T20:19:24.518Z,13.50
2018-06-17T20:21:54.891Z,13.40
2018-06-17T20:24:24.965Z,13.40
2018-06-17T20:26:55.007Z,13.30
2018-06-17T20:29:25.026Z,13.20
2018-06-17T20:32:00.316Z,13.10
2018-06-17T20:34:35.735Z,13.00
2018-06-17T20:37:11.127Z,12.90
2018-06-17T20:39:46.461Z,12.80
2018-06-17T20:42:21.897Z,12.70
2018-06-17T20:44:52.975Z,12.60
2018-06-17T20:47:24.097Z,12.60
2018-06-17T20:49:54.164Z,12.50
2018-06-17T20:52:24.913Z,12.50
2018-06-17T20:54:55.013Z,12.50
2018-06-17T20:57:25.561Z,12.50
2018-06-17T20:59:55.763Z,12.40
2018-06-17T21:02:25.959Z,12.50
2018-06-17T21:04:56.081Z,12.60
2018-06-17T21:07:26.401Z,12.60
2018-06-17T21:09:56.464Z,12.60
2018-06-17T21:12:26.942Z,12.70
2018-06-17T21:14:56.900Z,12.60
2018-06-17T21:17:26.973Z,12.70
2018-06-17T21:20:02.172Z,12.70
2018-06-17T21:22:37.511Z,12.80
2018-06-17T21:25:13.483Z,12.80
2018-06-17T21:27:43.513Z,12.80
2018-06-17T21:30:13.729Z,12.80
2018-06-17T21:32:43.985Z,12.80
2018-06-17T21:35:14.046Z,12.80
2018-06-17T21:37:44.323Z,12.70
2018-06-17T21:40:14.831Z,12.80
2018-06-17T21:42:45.501Z,12.80
2018-06-17T21:45:16.120Z,12.80
2018-06-17T21:47:46.286Z,12.80
2018-06-17T21:50:16.371Z,12.70
2018-06-17T21:52:46.711Z,12.70
2018-06-17T21:55:16.857Z,12.70
2018-06-17T21:57:47.857Z,12.70
2018-06-17T22:00:18.204Z,12.70
2018-06-17T22:02:49.498Z,12.70
2018-06-17T22:05:19.871Z,12.60
2018-06-17T22:07:55.328Z,12.60
2018-06-17T22:10:30.819Z,12.50
2018-06-17T22:13:02.463Z,12.40
2018-06-17T22:15:37.717Z,12.40
2018-06-17T22:18:07.956Z,12.40
2018-06-17T22:20:38.530Z,12.40
2018-06-17T22:23:08.732Z,12.40
2018-06-17T22:25:38.869Z,12.40
2018-06-17T22:28:09.048Z,12.40
2018-06-17T22:30:39.157Z,12.30
2018-06-17T22:33:09.215Z,12.30
2018-06-17T22:35:39.233Z,12.30
2018-06-17T22:38:09.609Z,12.30
2018-06-17T22:40:39.696Z,12.20
2018-06-17T22:43:09.792Z,12.20
2018-06-17T22:45:41.090Z,12.10
2018-06-17T22:48:11.170Z,12.10
2018-06-17T22:50:41.319Z,12.10
2018-06-17T22:53:28.410Z,12.10
2018-06-17T22:55:58.468Z,12.00
2018-06-17T22:58:33.763Z,12.00
2018-06-17T23:01:08.982Z,12.00
2018-06-17T23:03:44.291Z,12.00
2018-06-17T23:08:20.728Z,12.00
2018-06-17T23:10:51.051Z,11.90
2018-06-17T23:13:21.174Z,11.90
2018-06-17T23:15:51.339Z,11.90
2018-06-17T23:18:21.431Z,11.90
2018-06-17T23:20:51.966Z,11.90
2018-06-17T23:23:22.095Z,11.90
2018-06-17T23:25:52.460Z,12.00
2018-06-17T23:28:22.483Z,12.00
2018-06-17T23:30:52.503Z,11.90
2018-06-17T23:33:22.673Z,11.90
2018-06-17T23:35:52.743Z,11.90
2018-06-17T23:38:22.993Z,11.90
2018-06-17T23:40:53.123Z,11.90
2018-06-17T23:43:23.441Z,11.80
2018-06-17T23:45:58.996Z,11.90
2018-06-17T23:48:34.335Z,11.90
2018-06-17T23:51:09.521Z,11.80
2018-06-17T23:53:44.835Z,11.90
2018-06-17T23:56:14.899Z,11.80
2018-06-17T23:58:44.940Z,11.90
